Time;durP1;ratioP1;P1;durP2;ratioP2;P2;SDS_P1;SDS_P2;PMS_P1;PMS_P2;Temp;Humidity;BMP_temperature;BMP_pressure;BME280_temperature;BME280_humidity;BME280_pressure;Samples;Min_cycle;Max_cycle;Signal;HPM_P1;HPM_P2
2022/09/06 00:02:12;;;;;;;6.15;3.55;;;;;;;17.29;77.19;100787.66;5067331;28;20031;-31
2022/09/06 00:04:38;;;;;;;7.18;3.70;;;;;;;17.09;77.64;100782.75;5082024;28;20052;-27
2022/09/06 00:07:04;;;;;;;9.50;3.47;;;;;;;17.14;77.61;100779.31;5087322;28;20024;-27
2022/09/06 00:09:30;;;;;;;6.70;3.50;;;;;;;17.27;77.30;100790.59;5068939;28;20027;-30
2022/09/06 00:11:55;;;;;;;6.90;3.83;;;;;;;17.19;77.75;100799.06;5085835;28;20020;-29
2022/09/06 00:14:20;;;;;;;7.50;3.42;;;;;;;17.23;80.16;100794.81;5087606;28;20044;-29
2022/09/06 00:16:46;;;;;;;8.13;4.43;;;;;;;17.25;77.41;100781.13;5069029;28;20012;-32
2022/09/06 00:19:11;;;;;;;7.88;4.15;;;;;;;17.32;76.38;100780.94;5086939;28;20571;-28
2022/09/06 00:21:37;;;;;;;7.60;4.53;;;;;;;17.49;77.67;100789.84;5087665;28;20077;-27
2022/09/06 00:24:02;;;;;;;8.13;4.57;;;;;;;17.04;79.04;100774.56;5087085;28;20089;-28
2022/09/06 00:26:28;;;;;;;7.93;3.90;;;;;;;17.16;78.43;100783.41;5087114;28;20028;-31
2022/09/06 00:28:53;;;;;;;8.02;4.68;;;;;;;17.36;76.70;100771.28;5086977;28;20028;-28
2022/09/06 00:31:21;;;;;;;6.35;4.10;;;;;;;17.02;77.72;100766.75;5086893;28;20028;-29
2022/09/06 00:33:47;;;;;;;;;;;;;;;16.99;79.69;100785.25;5085691;28;20031;-30
2022/09/06 00:36:13;;;;;;;5.72;3.63;;;;;;;16.92;80.22;100765.72;5087265;28;19935;-29
2022/09/06 00:38:39;;;;;;;9.43;4.32;;;;;;;16.93;79.21;100767.38;5068656;28;20027;-29
2022/09/06 00:41:06;;;;;;;6.65;4.05;;;;;;;17.23;79.07;100788.63;5085366;28;20036;-28
2022/09/06 00:43:32;;;;;;;7.47;4.70;;;;;;;17.38;77.57;100796.13;5086871;28;20062;-30
2022/09/06 00:45:58;;;;;;;7.35;4.75;;;;;;;17.45;77.23;100792.22;5086809;28;20075;-32
2022/09/06 00:48:24;;;;;;;8.23;4.88;;;;;;;17.24;78.45;100791.09;5085092;28;20028;-28
2022/09/06 00:51:01;;;;;;;9.45;5.35;;;;;;;16.90;79.29;100792.09;5068585;28;20090;-28
2022/09/06 00:53:27;;;;;;;9.15;5.45;;;;;;;16.89;78.71;100767.03;5086917;28;20036;-28
2022/09/06 00:55:54;;;;;;;8.65;4.70;;;;;;;17.04;78.00;100774.56;5086621;28;20032;-29
2022/09/06 00:58:20;;;;;;;7.93;4.60;;;;;;;17.13;79.15;100789.28;5085292;28;20024;-29
2022/09/06 01:00:45;;;;;;;8.52;4.90;;;;;;;16.85;80.18;100793.66;5085126;28;20036;-28
2022/09/06 01:03:11;;;;;;;7.80;4.90;;;;;;;16.81;80.22;100797.88;5085025;28;20455;-28
2022/09/06 01:06:16;;;;;;;7.82;4.97;;;;;;;16.87;78.66;100790.72;5085360;28;20035;-28
2022/09/06 01:09:00;;;;;;;9.25;5.35;;;;;;;17.05;77.96;100782.41;5082546;28;20089;-28
2022/09/06 01:12:09;;;;;;;8.20;4.03;;;;;;;17.08;79.33;100786.50;5086925;28;20853;-28
2022/09/06 01:14:59;;;;;;;11.18;5.32;;;;;;;16.95;78.02;100786.81;5003986;28;20037;-29
2022/09/06 01:17:39;;;;;;;11.60;5.47;;;;;;;16.89;77.67;100772.44;5086500;28;20028;-29
2022/09/06 01:20:08;;;;;;;12.23;5.63;;;;;;;16.91;77.73;100791.06;5086645;28;20032;-31
2022/09/06 01:23:36;;;;;;;8.93;4.78;;;;;;;17.02;78.80;100788.28;5085190;28;20043;-32
2022/09/06 01:26:01;;;;;;;9.60;4.95;;;;;;;16.78;79.44;100787.56;5053327;28;20210;-28
2022/09/06 01:28:34;;;;;;;7.43;4.72;;;;;;;16.83;78.63;100785.00;5086547;28;20156;-28
2022/09/06 01:31:12;;;;;;;11.07;4.90;;;;;;;16.59;79.36;100767.28;5086351;28;20147;-34
2022/09/06 01:33:58;;;;;;;10.98;5.43;;;;;;;16.73;77.94;100768.63;5068287;28;20101;-31
2022/09/06 01:36:27;;;;;;;11.10;5.50;;;;;;;16.59;78.58;100767.28;5068178;28;20032;-28
2022/09/06 01:38:53;;;;;;;13.90;5.40;;;;;;;16.68;78.86;100766.66;5068322;28;20123;-31
2022/09/06 01:41:19;;;;;;;8.15;4.45;;;;;;;16.57;79.59;100758.63;5086282;28;20169;-27
2022/09/06 01:43:50;;;;;;;7.55;4.43;;;;;;;16.52;79.91;100751.28;5085038;28;20455;-29
2022/09/06 01:46:39;;;;;;;8.85;4.40;;;;;;;16.50;80.61;100749.91;5067971;28;20465;-28
2022/09/06 01:49:32;;;;;;;8.05;4.07;;;;;;;16.52;80.50;100769.31;5084733;28;20032;-29
2022/09/06 01:52:11;;;;;;;8.20;4.30;;;;;;;16.47;81.36;100770.88;5084831;28;20032;-28
2022/09/06 01:54:46;;;;;;;6.57;4.18;;;;;;;16.11;82.16;100766.66;5067925;28;20042;-27
2022/09/06 01:57:49;;;;;;;11.65;5.20;;;;;;;16.35;81.75;100762.00;5085996;28;20542;-29
2022/09/06 02:00:17;;;;;;;7.90;4.30;;;;;;;16.17;79.53;100738.78;5046025;28;20114;-29
2022/09/06 02:03:01;;;;;;;;;;;;;;;16.25;80.32;100762.63;5088935;28;20020;-29
2022/09/06 02:05:33;;;;;;;6.45;4.47;;;;;;;15.97;82.53;100766.09;5071451;28;19938;-28
2022/09/06 02:08:08;;;;;;;10.52;5.22;;;;;;;15.89;82.15;100742.25;5089876;28;20052;-28
2022/09/06 02:10:43;;;;;;;8.13;4.13;;;;;;;15.90;83.13;100760.03;5071631;28;20101;-29
2022/09/06 02:13:12;;;;;;;8.98;4.63;;;;;;;15.91;83.20;100750.91;5088041;28;20032;-29
2022/09/06 02:15:45;;;;;;;10.80;4.88;;;;;;;16.04;81.72;100747.97;5089633;28;20031;-29
2022/09/06 02:18:15;;;;;;;9.00;4.55;;;;;;;16.35;80.61;100756.63;5087989;28;20036;-30
2022/09/06 02:20:46;;;;;;;8.25;4.97;;;;;;;16.31;81.00;100747.41;5088285;28;20035;-28
2022/09/06 02:23:15;;;;;;;7.03;4.43;;;;;;;16.16;80.44;100752.47;5071371;28;20452;-28
2022/09/06 02:25:49;;;;;;;6.55;4.13;;;;;;;16.09;81.60;100757.19;5088009;28;20085;-30
2022/09/06 02:28:15;;;;;;;7.97;4.80;;;;;;;16.02;82.49;100752.75;5070563;28;20036;-28
2022/09/06 02:30:52;;;;;;;7.78;4.65;;;;;;;16.10;81.99;100748.88;5088048;28;20031;-28
2022/09/06 02:33:25;;;;;;;10.43;4.63;;;;;;;16.08;82.19;100756.38;5087905;28;20027;-27
2022/09/06 02:35:52;;;;;;;9.90;4.78;;;;;;;16.22;82.29;100746.13;5071030;28;20032;-29
2022/09/06 02:38:22;;;;;;;6.85;4.50;;;;;;;16.40;82.03;100748.63;5070806;28;20034;-28
2022/09/06 02:40:50;;;;;;;9.32;4.97;;;;;;;16.33;81.30;100749.88;5087593;28;20036;-28
2022/09/06 02:43:16;;;;;;;13.02;6.65;;;;;;;16.23;79.90;100742.41;5087256;28;20189;-33
2022/09/06 02:45:41;;;;;;;7.70;5.45;;;;;;;15.94;80.97;100761.22;5087584;28;20111;-30
2022/09/06 02:48:07;;;;;;;11.50;5.53;;;;;;;15.57;82.03;100756.09;5088941;28;20024;-28
2022/09/06 02:50:32;;;;;;;9.07;5.95;;;;;;;15.19;83.26;100760.03;5089087;28;20028;-29
2022/09/06 02:53:12;;;;;;;8.98;5.18;;;;;;;15.07;84.08;100745.78;5088859;28;20028;-29
2022/09/06 02:55:38;;;;;;;9.25;5.05;;;;;;;15.09;86.86;100765.16;5070663;28;20062;-27
2022/09/06 02:58:06;;;;;;;6.90;4.55;;;;;;;15.05;87.07;100745.19;5070575;28;20036;-30
2022/09/06 03:00:32;;;;;;;8.07;4.78;;;;;;;14.93;87.84;100749.72;5070100;28;20028;-31
2022/09/06 03:02:57;;;;;;;6.00;4.15;;;;;;;15.07;85.78;100756.53;5088592;28;20381;-30
2022/09/06 03:05:25;;;;;;;7.18;5.15;;;;;;;15.32;85.43;100752.81;5087067;28;20039;-30
2022/09/06 03:07:51;;;;;;;10.10;4.25;;;;;;;14.93;85.86;100739.00;5070254;28;20032;-28
2022/09/06 03:10:17;;;;;;;7.50;4.30;;;;;;;14.75;88.05;100754.16;5069982;28;20795;-28
2022/09/06 03:12:43;;;;;;;7.20;4.13;;;;;;;14.79;88.66;100744.59;5087347;28;20032;-27
2022/09/06 03:15:10;;;;;;;9.07;4.43;;;;;;;15.05;85.32;100743.31;5088054;28;20099;-31
2022/09/06 03:17:36;;;;;;;9.48;4.40;;;;;;;15.11;86.03;100763.06;5086889;28;20036;-28
2022/09/06 03:20:02;;;;;;;9.48;5.00;;;;;;;15.30;86.37;100765.66;5088336;28;20124;-30
2022/09/06 03:22:27;;;;;;;6.75;4.40;;;;;;;15.37;86.31;100750.25;5069742;28;20063;-28
2022/09/06 03:24:53;;;;;;;7.18;4.70;;;;;;;15.49;86.47;100775.25;5088567;28;20509;-27
2022/09/06 03:27:18;;;;;;;7.82;4.53;;;;;;;14.89;89.39;100744.00;5087362;28;20699;-30
2022/09/06 03:29:44;;;;;;;9.30;4.60;;;;;;;15.13;88.74;100774.41;5088279;28;20016;-27
2022/09/06 03:32:09;;;;;;;9.52;4.85;;;;;;;15.36;85.91;100744.03;5087965;28;20020;-29
2022/09/06 03:34:34;;;;;;;9.80;4.85;;;;;;;15.54;85.65;100775.34;5088281;28;20551;-28
2022/09/06 03:37:00;;;;;;;8.27;5.05;;;;;;;15.65;85.00;100769.16;5087849;28;20621;-28
2022/09/06 03:39:26;;;;;;;10.13;5.13;;;;;;;15.59;85.15;100758.53;5088416;28;20032;-28
2022/09/06 03:41:51;;;;;;;10.18;5.57;;;;;;;15.41;85.60;100771.03;5069788;28;20032;-30
2022/09/06 03:44:16;;;;;;;8.48;5.20;;;;;;;15.48;86.34;100784.34;5087921;28;20027;-28
2022/09/06 03:46:42;;;;;;;8.75;4.97;;;;;;;15.63;86.05;100787.41;5088281;28;20036;-33
2022/09/06 03:49:09;;;;;;;9.88;5.07;;;;;;;15.66;85.51;100770.78;5087501;28;20032;-29
2022/09/06 03:51:35;;;;;;;10.07;5.40;;;;;;;15.69;84.65;100777.56;5087578;28;20590;-29
2022/09/06 03:54:00;;;;;;;8.77;5.32;;;;;;;15.56;85.45;100765.19;5069519;28;20024;-28
2022/09/06 03:56:26;;;;;;;8.93;4.55;;;;;;;15.58;85.56;100773.84;5087688;28;20053;-30
2022/09/06 03:58:51;;;;;;;7.05;5.13;;;;;;;15.52;85.37;100764.03;5087652;28;20051;-30
2022/09/06 04:01:17;;;;;;;7.93;5.60;;;;;;;15.50;86.02;100779.56;5087536;28;20035;-28
2022/09/06 04:03:42;;;;;;;8.60;5.20;;;;;;;15.54;86.33;100763.78;5087692;28;20048;-30
2022/09/06 04:06:08;;;;;;;7.75;4.30;;;;;;;15.62;85.83;100775.00;5087474;28;20055;-32
2022/09/06 04:08:35;;;;;;;8.10;4.47;;;;;;;15.76;85.71;100789.06;5088003;28;20065;-29
2022/09/06 04:11:00;;;;;;;7.63;4.45;;;;;;;15.62;85.19;100780.38;5068933;28;20020;-33
2022/09/06 04:13:27;;;;;;;7.05;4.95;;;;;;;15.55;85.06;100777.00;5087677;28;20038;-27
2022/09/06 04:15:52;;;;;;;7.15;4.88;;;;;;;15.73;83.98;100791.41;5086052;28;20039;-28
2022/09/06 04:18:19;;;;;;;11.07;4.90;;;;;;;15.61;85.13;100800.28;5087684;28;20032;-30
2022/09/06 04:20:48;;;;;;;9.35;4.78;;;;;;;15.70;84.63;100797.22;5085765;28;20499;-28
2022/09/06 04:23:14;;;;;;;9.10;5.00;;;;;;;15.69;84.93;100785.63;5085173;28;20130;-30
2022/09/06 04:25:40;;;;;;;8.55;5.25;;;;;;;15.71;84.75;100793.47;5085980;28;20059;-28
2022/09/06 04:28:05;;;;;;;8.20;4.93;;;;;;;15.75;84.32;100789.28;5087184;28;20028;-28
2022/09/06 04:30:31;;;;;;;9.85;5.05;;;;;;;15.77;84.73;100790.72;5087475;28;20020;-32
2022/09/06 04:32:56;;;;;;;8.20;5.10;;;;;;;15.88;85.67;100810.56;5086602;28;20038;-30
2022/09/06 04:35:22;;;;;;;6.97;5.63;;;;;;;15.87;85.24;100792.78;5085240;28;20105;-31
2022/09/06 04:37:47;;;;;;;9.98;5.32;;;;;;;15.96;85.47;100818.28;5086948;28;20040;-28
2022/09/06 04:40:14;;;;;;;8.50;5.93;;;;;;;15.83;86.42;100807.75;5086964;28;20474;-33
2022/09/06 04:42:39;;;;;;;9.70;5.55;;;;;;;15.88;86.66;100794.44;5086795;28;20522;-31
2022/09/06 04:45:05;;;;;;;8.27;6.07;;;;;;;15.95;87.29;100810.44;5086858;28;20032;-28
2022/09/06 04:47:30;;;;;;;9.13;6.07;;;;;;;15.94;86.66;100806.94;5085345;28;20747;-28
2022/09/06 04:49:56;;;;;;;9.77;5.55;;;;;;;15.94;87.22;100814.19;5086804;28;20028;-27
2022/09/06 04:52:21;;;;;;;13.70;6.13;;;;;;;15.90;88.74;100811.16;5087356;28;20472;-28
2022/09/06 04:54:47;;;;;;;8.30;5.35;;;;;;;16.19;87.16;100812.03;5086941;28;20020;-29
2022/09/06 04:57:12;;;;;;;11.80;5.80;;;;;;;16.47;85.62;100813.13;5086794;28;20043;-30
2022/09/06 04:59:38;;;;;;;9.23;6.15;;;;;;;16.38;85.48;100803.78;5086765;28;20066;-28
2022/09/06 05:02:03;;;;;;;8.80;5.93;;;;;;;16.41;86.07;100817.59;5085479;28;20044;-29
2022/09/06 05:04:29;;;;;;;7.40;4.95;;;;;;;16.46;85.14;100795.31;5086738;28;20040;-29
2022/09/06 05:07:05;;;;;;;9.05;4.88;;;;;;;16.53;84.57;100797.88;5086930;28;20027;-32
2022/09/06 05:09:31;;;;;;;9.32;4.90;;;;;;;16.82;83.95;100809.50;5085234;28;20028;-28
2022/09/06 05:11:57;;;;;;;7.53;4.90;;;;;;;16.81;84.71;100808.66;5068487;28;20024;-28
2022/09/06 05:14:23;;;;;;;8.55;5.22;;;;;;;17.00;83.66;100795.81;5086574;28;20464;-32
2022/09/06 05:16:49;;;;;;;8.32;5.20;;;;;;;17.16;82.23;100804.13;5086427;28;20436;-31
2022/09/06 05:19:15;;;;;;;6.60;4.80;;;;;;;17.14;82.92;100814.34;5084994;28;20040;-30
2022/09/06 05:21:40;;;;;;;6.28;4.43;;;;;;;17.27;82.31;100806.75;5085416;28;20566;-28
2022/09/06 05:24:06;;;;;;;7.15;4.75;;;;;;;17.20;83.11;100802.56;5086793;28;20107;-29
2022/09/06 05:26:31;;;;;;;6.55;4.28;;;;;;;17.19;81.50;100785.59;5085149;28;20027;-28
2022/09/06 05:28:57;;;;;;;5.93;3.42;;;;;;;17.36;81.09;100800.94;5086733;28;20404;-29
2022/09/06 05:31:26;;;;;;;7.53;3.85;;;;;;;17.48;81.25;100801.69;5086506;28;20024;-28
2022/09/06 05:33:53;;;;;;;6.93;4.13;;;;;;;17.48;80.90;100804.38;5068936;28;20770;-28
2022/09/06 05:36:18;;;;;;;6.57;4.30;;;;;;;17.50;81.38;100796.84;5090633;28;20084;-31
2022/09/06 05:38:44;;;;;;;6.97;3.97;;;;;;;17.60;81.03;100794.31;5090479;28;20032;-27
2022/09/06 05:41:09;;;;;;;7.88;4.70;;;;;;;17.72;80.01;100774.53;5090214;28;20556;-31
2022/09/06 05:43:34;;;;;;;7.65;4.40;;;;;;;17.72;80.90;100778.03;5090715;28;20444;-30
2022/09/06 05:46:00;;;;;;;9.07;5.55;;;;;;;18.08;79.05;100802.78;5090237;28;20433;-32
2022/09/06 05:48:25;;;;;;;8.05;4.63;;;;;;;18.13;79.03;100796.66;5090191;28;20028;-29
2022/09/06 05:51:03;;;;;;;9.00;5.05;;;;;;;18.18;79.35;100794.00;5090347;28;20074;-29
2022/09/06 05:53:34;;;;;;;5.88;4.22;;;;;;;18.27;78.70;100797.91;5090361;28;20415;-30
2022/09/06 05:56:00;;;;;;;10.55;4.28;;;;;;;18.11;79.16;100778.00;5090225;28;20024;-28
2022/09/06 05:58:25;;;;;;;7.45;4.07;;;;;;;18.38;77.55;100790.75;5089955;28;20077;-33
2022/09/06 06:00:50;;;;;;;5.90;3.88;;;;;;;18.36;77.77;100785.59;5089813;28;20032;-28
2022/09/06 06:03:16;;;;;;;6.45;3.55;;;;;;;18.38;76.51;100778.03;5104089;28;20052;-31
2022/09/06 06:05:46;;;;;;;6.22;3.90;;;;;;;18.57;75.67;100761.50;5110213;28;20049;-27
2022/09/06 06:08:11;;;;;;;6.10;3.38;;;;;;;18.65;75.07;100793.44;5091046;28;20483;-28
2022/09/06 06:10:38;;;;;;;8.23;4.15;;;;;;;18.48;75.31;100782.75;5109790;28;20034;-30
2022/09/06 06:13:03;;;;;;;5.53;3.58;;;;;;;18.65;74.40;100793.44;5108611;28;20039;-30
2022/09/06 06:15:31;;;;;;;6.35;3.20;;;;;;;18.78;73.41;100782.25;5091202;28;20039;-30
2022/09/06 06:17:56;;;;;;;4.82;2.97;;;;;;;18.79;72.78;100773.09;5110212;28;20115;-30
2022/09/06 06:20:22;;;;;;;7.32;3.22;;;;;;;18.91;73.25;100791.03;5110109;28;20119;-33
2022/09/06 06:22:47;;;;;;;6.35;3.50;;;;;;;19.12;74.85;100782.00;5109935;28;20116;-29
2022/09/06 06:25:13;;;;;;;7.47;3.08;;;;;;;19.36;71.93;100777.06;5109378;28;20024;-31
2022/09/06 06:27:38;;;;;;;5.20;3.00;;;;;;;19.40;70.88;100794.41;5109570;28;20054;-28
2022/09/06 06:30:04;;;;;;;5.10;2.92;;;;;;;19.46;71.27;100784.44;5109307;28;20070;-29
2022/09/06 06:32:29;;;;;;;4.47;3.00;;;;;;;19.44;70.68;100794.69;5109513;28;20020;-31
2022/09/06 06:34:55;;;;;;;5.70;3.00;;;;;;;19.52;72.63;100802.31;5109713;28;20027;-30
2022/09/06 06:37:20;;;;;;;9.07;3.05;;;;;;;19.71;70.57;100793.81;5109254;28;20534;-28
2022/09/06 06:39:46;;;;;;;4.65;3.00;;;;;;;19.61;70.68;100797.22;5109524;28;20487;-28
2022/09/06 06:42:12;;;;;;;6.13;3.00;;;;;;;19.85;69.69;100794.97;5090886;28;20759;-32
2022/09/06 06:44:37;;;;;;;7.55;3.05;;;;;;;20.09;69.04;100798.06;5109066;28;20023;-28
2022/09/06 06:47:03;;;;;;;5.18;2.78;;;;;;;20.19;68.51;100783.75;5109080;28;20053;-29
2022/09/06 06:49:29;;;;;;;6.07;3.00;;;;;;;20.42;65.97;100794.13;5109140;28;20196;-29
2022/09/06 06:51:54;;;;;;;5.68;2.88;;;;;;;20.34;67.43;100772.97;5109197;28;20023;-28
2022/09/06 06:54:19;;;;;;;8.25;3.20;;;;;;;20.11;68.23;100792.41;5109313;28;20034;-29
2022/09/06 06:56:45;;;;;;;4.93;2.78;;;;;;;20.01;68.29;100772.31;5109138;28;20027;-32
2022/09/06 06:59:11;;;;;;;6.78;3.22;;;;;;;20.17;68.13;100780.50;5108492;28;20028;-30
2022/09/06 07:01:37;;;;;;;8.23;2.72;;;;;;;20.51;67.80;100780.03;5090833;28;20058;-31
2022/09/06 07:04:04;;;;;;;5.18;2.85;;;;;;;20.55;65.82;100786.56;5108790;28;20051;-29
2022/09/06 07:06:30;;;;;;;5.38;2.72;;;;;;;20.40;65.91;100766.47;5090667;28;20023;-28
2022/09/06 07:08:57;;;;;;;6.25;2.90;;;;;;;20.47;66.60;100768.91;5109113;28;20034;-31
2022/09/06 07:11:23;;;;;;;7.40;2.87;;;;;;;20.53;66.98;100783.31;5089869;28;20051;-30
2022/09/06 07:13:48;;;;;;;7.07;2.83;;;;;;;20.69;66.85;100779.56;5108187;28;20111;-28
2022/09/06 07:16:21;;;;;;;5.03;2.65;;;;;;;21.02;66.08;100780.13;5108673;28;20035;-31
2022/09/06 07:18:51;;;;;;;6.40;2.90;;;;;;;21.13;64.37;100743.78;5090186;28;20024;-29
2022/09/06 07:21:25;;;;;;;5.35;2.90;;;;;;;21.41;64.47;100766.81;5107948;28;20426;-28
2022/09/06 07:23:52;;;;;;;5.70;2.70;;;;;;;21.30;62.57;100769.81;5108610;28;20027;-32
2022/09/06 07:26:22;;;;;;;5.90;2.90;;;;;;;21.11;65.09;100767.66;5108200;28;20027;-29
2022/09/06 07:28:51;;;;;;;9.73;2.55;;;;;;;21.08;63.53;100741.06;5090219;28;20031;-33
2022/09/06 07:31:16;;;;;;;6.30;3.20;;;;;;;21.30;64.15;100758.97;5089644;28;20092;-30
2022/09/06 07:33:42;;;;;;;5.35;2.88;;;;;;;21.49;63.49;100768.16;5108591;28;20020;-30
2022/09/06 07:36:08;;;;;;;5.13;3.03;;;;;;;21.58;63.97;100765.72;5108240;28;20023;-30
2022/09/06 07:38:34;;;;;;;8.23;2.85;;;;;;;21.64;63.44;100770.06;5108694;28;20475;-29
2022/09/06 07:41:08;;;;;;;5.90;3.10;;;;;;;21.64;62.88;100768.16;5073015;28;20036;-30
2022/09/06 07:43:34;;;;;;;7.60;3.15;;;;;;;21.69;62.47;100756.47;5089822;28;20023;-29
2022/09/06 07:46:02;;;;;;;4.38;2.60;;;;;;;21.87;61.89;100771.34;5089505;28;20479;-29
2022/09/06 07:48:30;;;;;;;7.63;3.30;;;;;;;22.32;61.58;100785.84;5089786;28;20088;-30
2022/09/06 07:51:12;;;;;;;5.30;2.85;;;;;;;22.14;60.97;100787.25;5089134;28;20020;-30
2022/09/06 07:53:40;;;;;;;5.20;3.10;;;;;;;21.76;60.67;100775.16;5108068;28;20522;-29
2022/09/06 07:56:09;;;;;;;6.90;3.00;;;;;;;22.52;61.33;100792.25;5089169;28;20047;-29
2022/09/06 07:58:35;;;;;;;7.97;3.70;;;;;;;22.81;61.66;100760.50;5089318;28;20020;-28
2022/09/06 08:01:29;;;;;;;6.05;3.13;;;;;;;22.74;60.41;100783.66;5089552;28;20071;-33
2022/09/06 08:03:59;;;;;;;6.45;3.30;;;;;;;22.94;59.49;100779.97;5108134;28;20050;-28
2022/09/06 08:06:27;;;;;;;9.43;3.53;;;;;;;23.13;60.12;100772.78;5089569;28;20100;-28
2022/09/06 08:08:53;;;;;;;7.45;3.70;;;;;;;23.37;60.17;100770.09;5089504;28;20031;-30
2022/09/06 08:11:19;;;;;;;6.68;3.63;;;;;;;23.50;59.52;100765.91;5107368;28;20042;-30
2022/09/06 08:13:49;;;;;;;6.68;3.88;;;;;;;23.15;57.51;100765.16;5107499;28;20387;-28
2022/09/06 08:16:15;;;;;;;9.20;3.90;;;;;;;23.06;57.59;100756.78;5088921;28;20047;-28
2022/09/06 08:18:41;;;;;;;6.28;3.97;;;;;;;23.01;57.45;100742.41;5107609;28;20031;-28
2022/09/06 08:21:15;;;;;;;6.60;4.20;;;;;;;23.35;57.45;100757.88;5107265;28;20035;-28
2022/09/06 08:23:44;;;;;;;9.70;4.00;;;;;;;23.43;58.01;100732.75;5107431;28;20032;-31
2022/09/06 08:26:10;;;;;;;7.93;5.10;;;;;;;23.69;57.63;100751.53;5089152;28;20039;-31
2022/09/06 08:28:36;;;;;;;7.25;4.22;;;;;;;23.57;59.38;100733.69;5107270;28;20024;-28
2022/09/06 08:31:15;;;;;;;8.30;4.28;;;;;;;23.69;56.72;100736.00;5107120;28;20520;-28
2022/09/06 08:33:42;;;;;;;7.13;3.67;;;;;;;23.98;56.34;100738.66;5089098;28;20031;-29
2022/09/06 08:36:08;;;;;;;8.20;4.45;;;;;;;24.01;54.03;100737.28;5088902;28;20059;-32
2022/09/06 08:38:35;;;;;;;9.10;4.40;;;;;;;23.46;57.90;100715.88;5088910;28;20027;-31
2022/09/06 08:41:11;;;;;;;9.02;4.35;;;;;;;23.81;54.79;100735.63;5088610;28;20065;-31
2022/09/06 08:43:38;;;;;;;4.63;3.42;;;;;;;23.55;54.61;100727.72;5088699;28;20756;-30
2022/09/06 08:46:06;;;;;;;6.38;4.03;;;;;;;23.24;55.61;100725.34;5089035;28;20835;-30
2022/09/06 08:48:37;;;;;;;6.38;3.70;;;;;;;23.36;56.32;100705.09;5088875;28;20034;-28
2022/09/06 08:51:24;;;;;;;6.65;3.58;;;;;;;23.55;54.97;100719.56;5088564;28;20757;-31
2022/09/06 08:53:52;;;;;;;;;;;;;;;23.77;54.21;100716.34;5107297;28;20031;-30
2022/09/06 08:56:33;;;;;;;8.70;3.80;;;;;;;23.91;56.34;100719.16;5088759;28;19912;-32
2022/09/06 08:59:10;;;;;;;5.60;3.50;;;;;;;24.09;53.95;100720.28;5088683;28;20119;-31
2022/09/06 09:02:01;;;;;;;7.85;4.47;;;;;;;23.99;51.69;100707.63;5088649;28;20118;-39
2022/09/06 09:04:28;;;;;;;8.15;4.15;;;;;;;24.29;53.52;100716.44;5088534;28;20044;-30
2022/09/06 09:07:03;;;;;;;8.82;4.68;;;;;;;24.36;51.23;100710.66;5088605;28;20046;-28
2022/09/06 09:09:31;;;;;;;6.68;3.33;;;;;;;24.32;52.95;100699.50;5092065;28;20036;-31
2022/09/06 09:11:59;;;;;;;5.72;3.55;;;;;;;24.37;50.68;100696.69;5092668;28;20106;-28
2022/09/06 09:14:34;;;;;;;5.80;3.40;;;;;;;24.51;50.20;100706.91;5092531;28;20073;-33
2022/09/06 09:17:27;;;;;;;6.95;3.25;;;;;;;24.86;48.30;100697.31;5093815;28;20160;-37
2022/09/06 09:19:53;;;;;;;7.35;3.47;;;;;;;24.42;50.34;100704.81;5111117;28;20031;-30
2022/09/06 09:22:19;;;;;;;6.95;3.25;;;;;;;24.51;49.95;100682.34;5092547;28;20027;-31
2022/09/06 09:24:47;;;;;;;5.22;2.90;;;;;;;24.61;52.27;100674.81;5092454;28;20478;-30
2022/09/06 09:27:17;;;;;;;4.32;2.83;;;;;;;24.40;49.18;100670.78;5092040;28;20023;-32
2022/09/06 09:30:09;;;;;;;4.57;2.83;;;;;;;24.54;47.77;100689.94;5092827;28;20035;-30
2022/09/06 09:32:40;;;;;;;6.40;2.90;;;;;;;24.64;48.18;100673.41;5089371;28;20040;-32
2022/09/06 09:35:15;;;;;;;4.53;3.10;;;;;;;25.17;48.24;100686.66;5092184;28;20036;-31
2022/09/06 09:37:40;;;;;;;10.20;3.20;;;;;;;25.16;47.35;100684.22;5111309;28;20054;-33
2022/09/06 09:40:14;;;;;;;4.40;2.90;;;;;;;25.26;46.54;100667.69;5110699;28;20035;-28
2022/09/06 09:42:40;;;;;;;5.80;3.20;;;;;;;25.40;48.64;100670.44;5092316;28;20484;-29
2022/09/06 09:45:28;;;;;;;7.43;3.60;;;;;;;25.91;46.54;100693.97;5110555;28;20483;-32
2022/09/06 09:47:54;;;;;;;6.00;3.58;;;;;;;25.91;48.55;100663.91;5110313;28;20081;-31
2022/09/06 09:50:28;;;;;;;5.85;3.33;;;;;;;26.22;47.35;100672.22;5110554;28;20036;-32
2022/09/06 09:52:54;;;;;;;7.63;3.17;;;;;;;26.34;44.18;100651.72;5092127;28;20078;-31
2022/09/06 09:55:24;;;;;;;6.15;3.60;;;;;;;26.10;46.49;100649.28;5091630;28;20032;-29
2022/09/06 09:57:53;;;;;;;5.15;3.20;;;;;;;26.32;46.66;100664.91;5075006;28;20023;-32
2022/09/06 10:00:39;;;;;;;6.15;3.05;;;;;;;26.22;46.87;100663.19;5091814;28;20027;-29
2022/09/06 10:03:17;;;;;;;5.32;2.92;;;;;;;26.60;46.06;100651.91;5091549;28;20034;-28
2022/09/06 10:05:55;;;;;;;5.68;3.65;;;;;;;27.01;43.04;100642.63;5110436;28;20027;-28
2022/09/06 10:08:24;;;;;;;5.60;2.75;;;;;;;26.56;43.90;100635.31;5091709;28;20055;-30
2022/09/06 10:10:50;;;;;;;4.43;3.10;;;;;;;26.58;45.54;100646.78;5110033;28;20032;-30
2022/09/06 10:13:30;;;;;;;4.65;2.90;;;;;;;26.73;44.51;100642.81;5109983;28;20084;-29
2022/09/06 10:15:57;;;;;;;5.88;3.22;;;;;;;26.28;43.32;100639.28;5110172;28;20118;-29
2022/09/06 10:18:41;;;;;;;5.15;2.55;;;;;;;26.28;45.75;100645.56;5091542;28;20088;-35
2022/09/06 10:21:21;;;;;;;4.95;2.80;;;;;;;26.34;43.40;100636.13;5089919;28;20034;-30
2022/09/06 10:24:15;;;;;;;5.55;3.20;;;;;;;26.79;43.91;100630.63;5109910;28;20479;-34
2022/09/06 10:26:52;;;;;;;6.18;3.13;;;;;;;26.74;41.27;100627.19;5091224;28;20024;-29
2022/09/06 10:29:49;;;;;;;5.88;3.70;;;;;;;27.29;41.52;100618.59;5090912;28;20128;-30
2022/09/06 10:32:39;;;;;;;5.13;3.17;;;;;;;27.63;40.40;100625.28;5109982;28;20108;-32
2022/09/06 10:35:27;;;;;;;4.10;2.80;;;;;;;27.53;40.18;100603.69;5109512;28;20063;-28
2022/09/06 10:38:26;;;;;;;6.40;2.95;;;;;;;27.70;40.78;100613.84;5090878;28;20084;-29
2022/09/06 10:41:13;;;;;;;4.03;2.53;;;;;;;27.39;39.80;100609.28;5109728;28;20027;-30
2022/09/06 10:43:57;;;;;;;5.53;2.77;;;;;;;27.81;41.22;100604.19;5109903;28;20042;-31
2022/09/06 10:46:25;;;;;;;6.88;2.60;;;;;;;27.58;42.94;100607.06;5109163;28;20047;-29
2022/09/06 10:48:52;;;;;;;4.88;2.90;;;;;;;27.57;41.32;100596.44;5090927;28;20031;-29
2022/09/06 10:51:44;;;;;;;5.68;2.95;;;;;;;27.64;40.51;100597.56;5090647;28;20535;-29
2022/09/06 10:54:16;;;;;;;4.68;2.72;;;;;;;27.75;41.67;100594.50;5109424;28;20043;-29
2022/09/06 10:56:48;;;;;;;5.20;2.75;;;;;;;28.15;43.60;100591.59;5090540;28;20084;-34
2022/09/06 10:59:24;;;;;;;4.68;3.03;;;;;;;28.21;41.90;100606.75;5109722;28;20039;-30
2022/09/06 11:02:09;;;;;;;3.40;2.72;;;;;;;28.12;41.67;100587.59;5090617;28;20487;-28
2022/09/06 11:04:40;;;;;;;4.63;3.33;;;;;;;28.21;41.15;100593.06;5108716;28;20058;-30
2022/09/06 11:07:29;;;;;;;4.47;3.15;;;;;;;28.11;41.17;100585.16;5090104;28;20522;-32
2022/09/06 11:10:05;;;;;;;4.50;3.20;;;;;;;28.24;40.04;100587.72;5090513;28;20032;-31
2022/09/06 11:12:30;;;;;;;7.10;2.60;;;;;;;28.30;40.81;100577.41;5090308;28;20035;-29
2022/09/06 11:14:56;;;;;;;3.65;2.58;;;;;;;28.10;40.74;100584.38;5108739;28;20024;-30
2022/09/06 11:17:43;;;;;;;5.82;3.15;;;;;;;28.11;40.49;100566.75;5108179;28;20027;-31
2022/09/06 11:20:20;;;;;;;3.83;2.90;;;;;;;28.42;40.35;100572.03;5089257;28;20400;-28
2022/09/06 11:23:16;;;;;;;5.43;3.20;;;;;;;28.31;39.61;100573.50;5090275;28;20093;-28
2022/09/06 11:25:56;;;;;;;3.85;2.67;;;;;;;27.99;39.99;100561.13;5089616;28;20036;-32
2022/09/06 11:28:48;;;;;;;4.93;3.20;;;;;;;28.09;38.16;100557.25;5108400;28;20031;-34
2022/09/06 11:31:24;;;;;;;7.68;3.05;;;;;;;28.14;39.86;100559.84;5107131;28;20031;-28
2022/09/06 11:34:06;;;;;;;5.93;3.47;;;;;;;28.73;39.33;100562.75;5095165;28;20033;-32
2022/09/06 11:37:10;;;;;;;6.38;3.22;;;;;;;29.09;40.38;100557.91;5108071;28;20527;-31
2022/09/06 11:39:41;;;;;;;6.15;3.47;;;;;;;29.28;38.40;100563.81;5085372;28;20047;-29
2022/09/06 11:42:44;;;;;;;5.50;3.20;;;;;;;29.12;38.53;100551.78;5069226;28;20036;-31